EWG109 EKCH-EDDP
Flight info
| Callsign | EWG109 |
|---|---|
| Flight time | 0h 50m |
| Altitude | 31000 |
| Route | SALLO M736 BAKDO/N0453F290 M736 INDOK/N0453F350 M736 MAG/N0454F300 Z20 KENIG/N0408F230 T959 KOJEC KOJEC1V |
| Aircraft | A320/M-SDE3FGHIRWY/LB1 |
Departure
| Time | 2026-05-06 14:36 |
|---|---|
| Airport | Copenhagen Kastrup Airport (EKCH) |
Arrival
| Time | 2026-05-06 15:26 |
|---|---|
| Airport | Leipzig/Halle Airport (EDDP) |
| Time | Latitude | Longitude | Altitude | Speed | Heading |
|---|---|---|---|---|---|
| 2026-05-06 13:57 | 55.62644 | 12.64565 | 17 ft | 0 kts | 282° |
| 2026-05-06 14:22 | 55.62643 | 12.64573 | 17 ft | 3 kts | 282° |
| 2026-05-06 14:22 | 55.62639 | 12.64610 | 18 ft | 4 kts | 276° |
| 2026-05-06 14:23 | 55.62641 | 12.64653 | 19 ft | 4 kts | 232° |
| 2026-05-06 14:23 | 55.62657 | 12.64673 | 21 ft | 1 kts | 192° |
| 2026-05-06 14:23 | 55.62634 | 12.64665 | 19 ft | 4 kts | 192° |
| 2026-05-06 14:23 | 55.62617 | 12.64658 | 17 ft | 0 kts | 192° |
| 2026-05-06 14:27 | 55.62601 | 12.64655 | 8 ft | 7 kts | 185° |
| 2026-05-06 14:28 | 55.62549 | 12.64653 | 17 ft | 8 kts | 181° |
| 2026-05-06 14:28 | 55.62515 | 12.64653 | 17 ft | 0 kts | 180° |
| 2026-05-06 14:28 | 55.62503 | 12.64654 | 18 ft | 4 kts | 174° |
| 2026-05-06 14:28 | 55.62448 | 12.64670 | 18 ft | 10 kts | 172° |
| 2026-05-06 14:29 | 55.62371 | 12.64676 | 17 ft | 12 kts | 179° |
| 2026-05-06 14:29 | 55.62304 | 12.64753 | 17 ft | 12 kts | 121° |
| 2026-05-06 14:29 | 55.62230 | 12.64796 | 18 ft | 12 kts | 186° |
| 2026-05-06 14:29 | 55.62165 | 12.64719 | 18 ft | 10 kts | 216° |
| 2026-05-06 14:30 | 55.62112 | 12.64653 | 18 ft | 10 kts | 214° |
| 2026-05-06 14:30 | 55.62057 | 12.64589 | 17 ft | 6 kts | 213° |
| 2026-05-06 14:30 | 55.62023 | 12.64548 | 17 ft | 8 kts | 213° |
| 2026-05-06 14:30 | 55.61944 | 12.64494 | 17 ft | 13 kts | 183° |
| 2026-05-06 14:31 | 55.61851 | 12.64523 | 19 ft | 14 kts | 169° |
| 2026-05-06 14:31 | 55.61747 | 12.64557 | 17 ft | 16 kts | 169° |
| 2026-05-06 14:31 | 55.61639 | 12.64527 | 18 ft | 17 kts | 214° |
| 2026-05-06 14:31 | 55.61537 | 12.64409 | 19 ft | 18 kts | 213° |
| 2026-05-06 14:32 | 55.61426 | 12.64282 | 17 ft | 20 kts | 212° |
| 2026-05-06 14:32 | 55.61307 | 12.64145 | 17 ft | 21 kts | 213° |
| 2026-05-06 14:32 | 55.61180 | 12.63999 | 17 ft | 22 kts | 212° |
| 2026-05-06 14:32 | 55.61044 | 12.63847 | 17 ft | 24 kts | 204° |
| 2026-05-06 14:33 | 55.60907 | 12.63685 | 18 ft | 24 kts | 216° |
| 2026-05-06 14:33 | 55.60829 | 12.63594 | 19 ft | 3 kts | 212° |
| 2026-05-06 14:33 | 55.60786 | 12.63547 | 17 ft | 11 kts | 211° |
| 2026-05-06 14:33 | 55.60723 | 12.63484 | 18 ft | 10 kts | 209° |
| 2026-05-06 14:34 | 55.60674 | 12.63421 | 19 ft | 8 kts | 217° |
| 2026-05-06 14:34 | 55.60632 | 12.63358 | 17 ft | 9 kts | 220° |
| 2026-05-06 14:34 | 55.60558 | 12.63245 | 18 ft | 16 kts | 221° |
| 2026-05-06 14:34 | 55.60466 | 12.63258 | 17 ft | 15 kts | 129° |
| 2026-05-06 14:35 | 55.60403 | 12.63408 | 18 ft | 15 kts | 102° |
| 2026-05-06 14:35 | 55.60473 | 12.63560 | 17 ft | 18 kts | 38° |
| 2026-05-06 14:35 | 55.60633 | 12.63809 | 19 ft | 60 kts | 42° |
| 2026-05-06 14:35 | 55.61117 | 12.64566 | 17 ft | 124 kts | 41° |
| 2026-05-06 14:36 | 55.61871 | 12.65810 | 74 ft | 165 kts | 47° |
| 2026-05-06 14:36 | 55.62701 | 12.67206 | 718 ft | 162 kts | 46° |
| 2026-05-06 14:36 | 55.63556 | 12.68520 | 1348 ft | 166 kts | 45° |
| 2026-05-06 14:36 | 55.64487 | 12.69938 | 1681 ft | 187 kts | 45° |
| 2026-05-06 14:37 | 55.65536 | 12.71529 | 1934 ft | 210 kts | 44° |
| 2026-05-06 14:37 | 55.66724 | 12.73289 | 2276 ft | 235 kts | 43° |
| 2026-05-06 14:37 | 55.68029 | 12.75241 | 2859 ft | 251 kts | 47° |
| 2026-05-06 14:37 | 55.69052 | 12.77741 | 3692 ft | 253 kts | 67° |
| 2026-05-06 14:38 | 55.69489 | 12.80739 | 4636 ft | 253 kts | 87° |
| 2026-05-06 14:38 | 55.69279 | 12.83841 | 5556 ft | 257 kts | 107° |
| 2026-05-06 14:38 | 55.68427 | 12.86664 | 6383 ft | 266 kts | 127° |
| 2026-05-06 14:38 | 55.66982 | 12.88788 | 7188 ft | 275 kts | 151° |
| 2026-05-06 14:39 | 55.65184 | 12.90037 | 8011 ft | 280 kts | 162° |
| 2026-05-06 14:39 | 55.63260 | 12.90689 | 8861 ft | 284 kts | 176° |
| 2026-05-06 14:39 | 55.61280 | 12.90533 | 9698 ft | 288 kts | 190° |
| 2026-05-06 14:39 | 55.59330 | 12.89575 | 10247 ft | 300 kts | 204° |
| 2026-05-06 14:40 | 55.57449 | 12.87695 | 10493 ft | 322 kts | 219° |
| 2026-05-06 14:40 | 55.55805 | 12.84917 | 10961 ft | 333 kts | 227° |
| 2026-05-06 14:40 | 55.54155 | 12.82003 | 11642 ft | 338 kts | 221° |
| 2026-05-06 14:40 | 55.52171 | 12.79740 | 12365 ft | 343 kts | 207° |
| 2026-05-06 14:41 | 55.49896 | 12.78398 | 13117 ft | 348 kts | 193° |
| 2026-05-06 14:41 | 55.48288 | 12.78070 | 13590 ft | 353 kts | 184° |
| 2026-05-06 14:41 | 55.44984 | 12.78591 | 14444 ft | 360 kts | 175° |
| 2026-05-06 14:41 | 55.42490 | 12.79144 | 15075 ft | 363 kts | 175° |
| 2026-05-06 14:42 | 55.40825 | 12.79509 | 15499 ft | 365 kts | 175° |
| 2026-05-06 14:42 | 55.38300 | 12.80055 | 16135 ft | 368 kts | 175° |
| 2026-05-06 14:42 | 55.35755 | 12.80683 | 16750 ft | 372 kts | 170° |
| 2026-05-06 14:42 | 55.33240 | 12.82070 | 17375 ft | 377 kts | 158° |
| 2026-05-06 14:43 | 55.30943 | 12.84319 | 18047 ft | 380 kts | 146° |
| 2026-05-06 14:43 | 55.28889 | 12.87150 | 18604 ft | 383 kts | 143° |
| 2026-05-06 14:43 | 55.26805 | 12.90083 | 19114 ft | 385 kts | 144° |
| 2026-05-06 14:43 | 55.24701 | 12.93025 | 19606 ft | 389 kts | 143° |
| 2026-05-06 14:44 | 55.22571 | 12.95990 | 20098 ft | 392 kts | 143° |
| 2026-05-06 14:44 | 55.20423 | 12.98973 | 20560 ft | 396 kts | 144° |
| 2026-05-06 14:44 | 55.18256 | 13.01979 | 21032 ft | 399 kts | 144° |
| 2026-05-06 14:45 | 55.13871 | 13.08051 | 21977 ft | 405 kts | 144° |
| 2026-05-06 14:45 | 55.11651 | 13.11127 | 22439 ft | 408 kts | 144° |
| 2026-05-06 14:45 | 55.09389 | 13.14258 | 22892 ft | 411 kts | 144° |
| 2026-05-06 14:45 | 55.07165 | 13.17331 | 23325 ft | 415 kts | 144° |
| 2026-05-06 14:46 | 55.04899 | 13.20458 | 23720 ft | 417 kts | 144° |
| 2026-05-06 14:46 | 55.02616 | 13.23606 | 24106 ft | 419 kts | 144° |
| 2026-05-06 14:46 | 55.00331 | 13.26745 | 24570 ft | 418 kts | 144° |
| 2026-05-06 14:46 | 54.98040 | 13.29884 | 24993 ft | 419 kts | 144° |
| 2026-05-06 14:47 | 54.95616 | 13.32677 | 25360 ft | 417 kts | 156° |
| 2026-05-06 14:47 | 54.92888 | 13.34284 | 25720 ft | 414 kts | 172° |
| 2026-05-06 14:47 | 54.90034 | 13.34512 | 26087 ft | 411 kts | 188° |
| 2026-05-06 14:47 | 54.87256 | 13.33360 | 26433 ft | 411 kts | 200° |
| 2026-05-06 14:48 | 54.84557 | 13.31686 | 26781 ft | 412 kts | 201° |
| 2026-05-06 14:48 | 54.81858 | 13.29980 | 27135 ft | 414 kts | 201° |
| 2026-05-06 14:48 | 54.79140 | 13.28256 | 27479 ft | 416 kts | 201° |
| 2026-05-06 14:48 | 54.76413 | 13.26536 | 27821 ft | 419 kts | 200° |
| 2026-05-06 14:49 | 54.73669 | 13.24818 | 28148 ft | 420 kts | 200° |
| 2026-05-06 14:49 | 54.70911 | 13.23102 | 28514 ft | 421 kts | 200° |
| 2026-05-06 14:49 | 54.68148 | 13.21391 | 28849 ft | 423 kts | 200° |
| 2026-05-06 14:49 | 54.65362 | 13.19673 | 29143 ft | 425 kts | 200° |
| 2026-05-06 14:50 | 54.62573 | 13.17956 | 29424 ft | 428 kts | 200° |
| 2026-05-06 14:50 | 54.59810 | 13.16254 | 29726 ft | 429 kts | 200° |
| 2026-05-06 14:50 | 54.57000 | 13.14521 | 30035 ft | 430 kts | 200° |
| 2026-05-06 14:50 | 54.54222 | 13.12809 | 30242 ft | 432 kts | 200° |
| 2026-05-06 14:51 | 54.51386 | 13.11062 | 30444 ft | 435 kts | 200° |
| 2026-05-06 14:51 | 54.48529 | 13.09302 | 30687 ft | 437 kts | 200° |
| 2026-05-06 14:51 | 54.45669 | 13.07544 | 30859 ft | 437 kts | 200° |
| 2026-05-06 14:52 | 54.40025 | 13.04094 | 30901 ft | 425 kts | 200° |
| 2026-05-06 14:52 | 54.34447 | 13.00708 | 30895 ft | 422 kts | 200° |
| 2026-05-06 14:53 | 54.28906 | 12.97348 | 30890 ft | 423 kts | 200° |
| 2026-05-06 14:53 | 54.23354 | 12.93983 | 30884 ft | 423 kts | 200° |
| 2026-05-06 14:54 | 54.17810 | 12.90627 | 30885 ft | 423 kts | 200° |
| 2026-05-06 14:54 | 54.12260 | 12.87275 | 30877 ft | 423 kts | 200° |
| 2026-05-06 14:55 | 54.06706 | 12.83926 | 30874 ft | 423 kts | 200° |
| 2026-05-06 14:55 | 54.01152 | 12.80605 | 30864 ft | 423 kts | 199° |
| 2026-05-06 14:56 | 53.95590 | 12.77292 | 30856 ft | 424 kts | 199° |
| 2026-05-06 14:56 | 53.90020 | 12.73979 | 30860 ft | 424 kts | 199° |
| 2026-05-06 14:57 | 53.84457 | 12.70666 | 30859 ft | 424 kts | 199° |
| 2026-05-06 14:57 | 53.78884 | 12.67359 | 30855 ft | 424 kts | 199° |
| 2026-05-06 14:58 | 53.73312 | 12.64059 | 30855 ft | 424 kts | 199° |
| 2026-05-06 14:58 | 53.67743 | 12.60777 | 30853 ft | 424 kts | 199° |
| 2026-05-06 14:59 | 53.62172 | 12.57492 | 30847 ft | 424 kts | 199° |
| 2026-05-06 14:59 | 53.56599 | 12.54233 | 30840 ft | 424 kts | 199° |
| 2026-05-06 15:00 | 53.51026 | 12.50977 | 30841 ft | 424 kts | 199° |
| 2026-05-06 15:00 | 53.45447 | 12.47731 | 30839 ft | 424 kts | 199° |
| 2026-05-06 15:01 | 53.39866 | 12.44491 | 30842 ft | 424 kts | 199° |
| 2026-05-06 15:01 | 53.34290 | 12.41261 | 30852 ft | 424 kts | 198° |
| 2026-05-06 15:02 | 53.28665 | 12.38008 | 30843 ft | 424 kts | 198° |
| 2026-05-06 15:02 | 53.23087 | 12.34789 | 30843 ft | 424 kts | 199° |
| 2026-05-06 15:03 | 53.17505 | 12.31571 | 30837 ft | 424 kts | 198° |
| 2026-05-06 15:03 | 53.11922 | 12.28384 | 30830 ft | 424 kts | 198° |
| 2026-05-06 15:04 | 53.06345 | 12.25213 | 30860 ft | 421 kts | 200° |
| 2026-05-06 15:04 | 53.00857 | 12.22085 | 30872 ft | 418 kts | 200° |
| 2026-05-06 15:05 | 52.95376 | 12.18962 | 30870 ft | 415 kts | 200° |
| 2026-05-06 15:05 | 52.89920 | 12.15867 | 30858 ft | 414 kts | 200° |
| 2026-05-06 15:06 | 52.84474 | 12.12791 | 30856 ft | 413 kts | 200° |
| 2026-05-06 15:06 | 52.79036 | 12.09722 | 30848 ft | 413 kts | 200° |
| 2026-05-06 15:07 | 52.73588 | 12.06654 | 30216 ft | 413 kts | 200° |
| 2026-05-06 15:07 | 52.70866 | 12.05128 | 29641 ft | 413 kts | 200° |
| 2026-05-06 15:07 | 52.68140 | 12.03596 | 29001 ft | 414 kts | 200° |
| 2026-05-06 15:07 | 52.65407 | 12.02060 | 28386 ft | 416 kts | 200° |
| 2026-05-06 15:08 | 52.62664 | 12.00526 | 27771 ft | 416 kts | 200° |
| 2026-05-06 15:08 | 52.59848 | 11.99545 | 27180 ft | 414 kts | 186° |
| 2026-05-06 15:08 | 52.56971 | 11.99884 | 26603 ft | 417 kts | 170° |
| 2026-05-06 15:08 | 52.54214 | 12.01400 | 26032 ft | 418 kts | 163° |
| 2026-05-06 15:09 | 52.51507 | 12.03108 | 25476 ft | 416 kts | 162° |
| 2026-05-06 15:09 | 52.48816 | 12.04822 | 24919 ft | 413 kts | 163° |
| 2026-05-06 15:09 | 52.46141 | 12.06530 | 24386 ft | 411 kts | 163° |
| 2026-05-06 15:09 | 52.43485 | 12.08224 | 23860 ft | 408 kts | 163° |
| 2026-05-06 15:10 | 52.40845 | 12.09897 | 23324 ft | 406 kts | 163° |
| 2026-05-06 15:10 | 52.38217 | 12.11554 | 22715 ft | 403 kts | 163° |
| 2026-05-06 15:10 | 52.35612 | 12.13190 | 22113 ft | 400 kts | 163° |
| 2026-05-06 15:10 | 52.33022 | 12.14814 | 21523 ft | 397 kts | 163° |
| 2026-05-06 15:11 | 52.30447 | 12.16431 | 20944 ft | 395 kts | 163° |
| 2026-05-06 15:11 | 52.27896 | 12.18036 | 20383 ft | 392 kts | 163° |
| 2026-05-06 15:11 | 52.25358 | 12.19626 | 19827 ft | 389 kts | 163° |
| 2026-05-06 15:11 | 52.22843 | 12.21195 | 19274 ft | 387 kts | 163° |
| 2026-05-06 15:12 | 52.20323 | 12.22765 | 18747 ft | 384 kts | 162° |
| 2026-05-06 15:12 | 52.17816 | 12.24330 | 18225 ft | 382 kts | 162° |
| 2026-05-06 15:12 | 52.15345 | 12.25874 | 17643 ft | 379 kts | 162° |
| 2026-05-06 15:12 | 52.12884 | 12.27411 | 17054 ft | 377 kts | 162° |
| 2026-05-06 15:13 | 52.10447 | 12.28931 | 16473 ft | 375 kts | 162° |
| 2026-05-06 15:13 | 52.08015 | 12.30444 | 15907 ft | 373 kts | 162° |
| 2026-05-06 15:13 | 52.05593 | 12.31946 | 15347 ft | 371 kts | 162° |
| 2026-05-06 15:13 | 52.03185 | 12.33440 | 14793 ft | 370 kts | 162° |
| 2026-05-06 15:14 | 52.00793 | 12.34924 | 14240 ft | 368 kts | 162° |
| 2026-05-06 15:14 | 51.98404 | 12.36406 | 13724 ft | 366 kts | 162° |
| 2026-05-06 15:14 | 51.96031 | 12.37872 | 13150 ft | 364 kts | 162° |
| 2026-05-06 15:14 | 51.93675 | 12.39326 | 12574 ft | 362 kts | 162° |
| 2026-05-06 15:15 | 51.91329 | 12.40770 | 11996 ft | 360 kts | 162° |
| 2026-05-06 15:15 | 51.88997 | 12.42203 | 11437 ft | 357 kts | 162° |
| 2026-05-06 15:15 | 51.86685 | 12.43652 | 10890 ft | 354 kts | 162° |
| 2026-05-06 15:15 | 51.84397 | 12.45084 | 10349 ft | 351 kts | 162° |
| 2026-05-06 15:16 | 51.82864 | 12.46036 | 9992 ft | 349 kts | 162° |
| 2026-05-06 15:16 | 51.80627 | 12.47419 | 9797 ft | 339 kts | 162° |
| 2026-05-06 15:16 | 51.78485 | 12.48739 | 9787 ft | 320 kts | 162° |
| 2026-05-06 15:16 | 51.76470 | 12.49989 | 9791 ft | 304 kts | 162° |
| 2026-05-06 15:17 | 51.74543 | 12.51208 | 9792 ft | 289 kts | 162° |
| 2026-05-06 15:17 | 51.72690 | 12.52387 | 9794 ft | 285 kts | 162° |
| 2026-05-06 15:17 | 51.70851 | 12.53557 | 9791 ft | 284 kts | 162° |
| 2026-05-06 15:17 | 51.69016 | 12.54723 | 9790 ft | 284 kts | 162° |
| 2026-05-06 15:18 | 51.67179 | 12.55891 | 9793 ft | 284 kts | 162° |
| 2026-05-06 15:18 | 51.65340 | 12.57061 | 9792 ft | 284 kts | 162° |
| 2026-05-06 15:18 | 51.63500 | 12.58232 | 9792 ft | 284 kts | 162° |
| 2026-05-06 15:18 | 51.61667 | 12.59400 | 9792 ft | 284 kts | 162° |
| 2026-05-06 15:19 | 51.59829 | 12.60570 | 9782 ft | 283 kts | 162° |
| 2026-05-06 15:19 | 51.57992 | 12.61724 | 9686 ft | 285 kts | 162° |
| 2026-05-06 15:19 | 51.56146 | 12.62878 | 9278 ft | 284 kts | 162° |
| 2026-05-06 15:19 | 51.54315 | 12.64042 | 8883 ft | 282 kts | 162° |
| 2026-05-06 15:20 | 51.52493 | 12.65202 | 8461 ft | 281 kts | 162° |
| 2026-05-06 15:20 | 51.50616 | 12.66383 | 7765 ft | 290 kts | 162° |
| 2026-05-06 15:20 | 51.48740 | 12.67548 | 7077 ft | 287 kts | 162° |
| 2026-05-06 15:20 | 51.46887 | 12.68688 | 6410 ft | 284 kts | 162° |
| 2026-05-06 15:21 | 51.45048 | 12.69790 | 5785 ft | 278 kts | 166° |
| 2026-05-06 15:21 | 51.43249 | 12.69906 | 5684 ft | 254 kts | 200° |
| 2026-05-06 15:21 | 51.41802 | 12.68330 | 5574 ft | 257 kts | 234° |
| 2026-05-06 15:21 | 51.41210 | 12.65676 | 5323 ft | 258 kts | 269° |
| 2026-05-06 15:22 | 51.41668 | 12.62904 | 5005 ft | 262 kts | 294° |
| 2026-05-06 15:22 | 51.42463 | 12.60257 | 4685 ft | 263 kts | 291° |
| 2026-05-06 15:22 | 51.42838 | 12.57438 | 4375 ft | 259 kts | 269° |
| 2026-05-06 15:22 | 51.42740 | 12.54569 | 4037 ft | 257 kts | 263° |
| 2026-05-06 15:23 | 51.42579 | 12.51722 | 3681 ft | 255 kts | 264° |
| 2026-05-06 15:23 | 51.42448 | 12.48919 | 3354 ft | 251 kts | 265° |
| 2026-05-06 15:23 | 51.42327 | 12.46147 | 3026 ft | 248 kts | 265° |
| 2026-05-06 15:23 | 51.42206 | 12.43417 | 2697 ft | 245 kts | 265° |
| 2026-05-06 15:24 | 51.42085 | 12.40710 | 2373 ft | 242 kts | 266° |
| 2026-05-06 15:24 | 51.41965 | 12.38031 | 2044 ft | 240 kts | 266° |
| 2026-05-06 15:24 | 51.41846 | 12.35402 | 1730 ft | 232 kts | 266° |
| 2026-05-06 15:24 | 51.41732 | 12.32880 | 1423 ft | 222 kts | 267° |
| 2026-05-06 15:25 | 51.41624 | 12.30517 | 1143 ft | 203 kts | 267° |
| 2026-05-06 15:25 | 51.41525 | 12.28373 | 897 ft | 183 kts | 267° |
| 2026-05-06 15:25 | 51.41438 | 12.26425 | 578 ft | 169 kts | 269° |
| 2026-05-06 15:25 | 51.41365 | 12.24677 | 477 ft | 145 kts | 270° |
| 2026-05-06 15:26 | 51.41305 | 12.23305 | 470 ft | 100 kts | 264° |
| 2026-05-06 15:26 | 51.41263 | 12.22391 | 461 ft | 67 kts | 264° |
| 2026-05-06 15:26 | 51.41217 | 12.21808 | 454 ft | 30 kts | 262° |
| 2026-05-06 15:26 | 51.41210 | 12.21600 | 453 ft | 6 kts | 269° |
| 2026-05-06 15:27 | 51.41209 | 12.21525 | 453 ft | 9 kts | 268° |
| 2026-05-06 15:27 | 51.41198 | 12.21330 | 450 ft | 21 kts | 269° |
| 2026-05-06 15:27 | 51.41190 | 12.21082 | 441 ft | 23 kts | 265° |
| 2026-05-06 15:27 | 51.41177 | 12.20812 | 437 ft | 26 kts | 265° |
| 2026-05-06 15:28 | 51.41198 | 12.20569 | 439 ft | 15 kts | 328° |
| 2026-05-06 15:28 | 51.41260 | 12.20578 | 441 ft | 8 kts | 13° |
| 2026-05-06 15:28 | 51.41343 | 12.20610 | 436 ft | 17 kts | 13° |
| 2026-05-06 15:28 | 51.41472 | 12.20667 | 430 ft | 21 kts | 15° |
| 2026-05-06 15:29 | 51.41624 | 12.20734 | 422 ft | 24 kts | 15° |
| 2026-05-06 15:29 | 51.41797 | 12.20809 | 425 ft | 27 kts | 15° |
| 2026-05-06 15:29 | 51.41963 | 12.20883 | 417 ft | 16 kts | 27° |
| 2026-05-06 15:29 | 51.41980 | 12.21041 | 416 ft | 15 kts | 103° |
| 2026-05-06 15:30 | 51.41946 | 12.21198 | 424 ft | 14 kts | 107° |
| 2026-05-06 15:30 | 51.41924 | 12.21350 | 430 ft | 14 kts | 102° |
| 2026-05-06 15:30 | 51.41899 | 12.21492 | 429 ft | 13 kts | 107° |
| 2026-05-06 15:30 | 51.41874 | 12.21637 | 433 ft | 14 kts | 105° |
| 2026-05-06 15:31 | 51.41844 | 12.21806 | 430 ft | 17 kts | 105° |
| 2026-05-06 15:31 | 51.41840 | 12.21918 | 428 ft | 7 kts | 40° |
| 2026-05-06 15:31 | 51.41894 | 12.21944 | 434 ft | 9 kts | 15° |
| 2026-05-06 15:32 | 51.41923 | 12.21957 | 436 ft | 1 kts | 15° |
| 2026-05-06 15:32 | 51.41925 | 12.21958 | 433 ft | 1 kts | 15° |
| 2026-05-06 15:32 | 51.41927 | 12.21958 | 432 ft | 0 kts | 15° |